Time;durP1;ratioP1;P1;durP2;ratioP2;P2;SDS_P1;SDS_P2;PMS_P1;PMS_P2;Temp;Humidity;BMP_temperature;BMP_pressure;BME280_temperature;BME280_humidity;BME280_pressure;Samples;Min_cycle;Max_cycle;Signal;HPM_P1;HPM_P2
2022/06/23 00:00:17;;;;;;;;;17.50;16.25;;;;;24.51;53.99;100268.78;4717197;30;45851;-84
2022/06/23 00:02:43;;;;;;;;;20.25;19.25;;;;;24.45;53.92;100259.75;4716289;30;45995;-86
2022/06/23 00:05:15;;;;;;;;;20.75;19.00;;;;;24.50;54.37;100267.16;4713555;30;46267;-83
2022/06/23 00:07:46;;;;;;;;;22.75;21.75;;;;;24.48;54.56;100263.84;4715235;30;48283;-85
2022/06/23 00:10:14;;;;;;;;;15.75;15.75;;;;;24.47;54.63;100267.56;4736707;29;45536;-80
2022/06/23 00:12:41;;;;;;;;;18.75;17.00;;;;;24.35;54.72;100250.44;4762606;29;45725;-85
2022/06/23 00:15:07;;;;;;;;;18.50;18.00;;;;;24.43;55.20;100271.69;4778209;29;47132;-84
2022/06/23 00:17:32;;;;;;;;;19.50;19.50;;;;;24.40;55.15;100264.88;4775213;29;46705;-85
2022/06/23 00:20:06;;;;;;;;;15.75;15.50;;;;;24.38;55.05;100260.78;4774625;29;45645;-86
2022/06/23 00:22:32;;;;;;;;;21.00;20.75;;;;;24.38;55.07;100255.41;4793590;29;45763;-85
2022/06/23 00:25:02;;;;;;;;;20.50;19.25;;;;;24.36;55.18;100255.63;4848479;29;45819;-81
2022/06/23 00:27:41;;;;;;;;;21.50;19.50;;;;;24.32;55.00;100256.25;4882863;29;46668;-83
2022/06/23 00:30:21;;;;;;;;;20.00;19.25;;;;;24.32;55.38;100264.28;4887619;28;46296;-83
2022/06/23 00:32:46;;;;;;;;;17.00;16.75;;;;;24.30;55.09;100260.97;4968043;28;46008;-84
2022/06/23 00:35:18;;;;;;;;;18.00;17.75;;;;;24.30;55.59;100266.31;4986874;28;46378;-82
2022/06/23 00:37:47;;;;;;;;;19.75;19.00;;;;;24.25;55.48;100251.69;4975776;28;46793;-83
2022/06/23 00:40:14;;;;;;;;;21.75;19.75;;;;;24.27;55.71;100256.03;4976585;28;46123;-85
2022/06/23 00:42:51;;;;;;;;;18.75;18.25;;;;;24.17;55.77;100238.53;4956800;28;45702;-82
2022/06/23 00:45:43;;;;;;;;;21.00;20.50;;;;;24.18;55.83;100239.38;4975650;28;46595;-82
2022/06/23 00:48:28;;;;;;;;;22.00;20.00;;;;;24.22;56.03;100249.44;4973494;28;46184;-82
2022/06/23 00:51:12;;;;;;;;;20.75;19.75;;;;;24.18;56.36;100256.22;4977413;28;45816;-80
2022/06/23 00:53:55;;;;;;;;;18.50;17.75;;;;;24.16;56.22;100250.25;4967643;28;46090;-84
2022/06/23 00:56:38;;;;;;;;;18.50;17.50;;;;;24.15;56.38;100240.56;4966003;28;45522;-83
2022/06/23 00:59:16;;;;;;;;;18.50;18.00;;;;;24.17;56.67;100241.22;4954861;28;46226;-81
2022/06/23 01:01:49;;;;;;;;;21.25;20.25;;;;;24.15;57.02;100237.06;4952547;28;45672;-79
2022/06/23 01:04:41;;;;;;;;;20.50;20.00;;;;;24.13;56.72;100231.91;4947606;28;46227;-84
2022/06/23 01:07:12;;;;;;;;;18.50;16.25;;;;;24.17;57.03;100233.19;4971853;28;45669;-82
2022/06/23 01:09:54;;;;;;;;;20.00;18.00;;;;;24.16;56.73;100230.66;4977753;28;45675;-83
2022/06/23 01:12:44;;;;;;;;;15.00;14.75;;;;;24.16;56.96;100244.06;4971081;28;45667;-81
2022/06/23 01:15:32;;;;;;;;;20.00;19.25;;;;;24.14;58.12;100238.91;4964503;28;45931;-81
2022/06/23 01:18:07;;;;;;;;;20.50;19.00;;;;;24.09;58.33;100229.84;4975638;28;45957;-84
2022/06/23 01:31:16;;;;;;;;;17.25;16.50;;;;;23.92;58.91;100234.78;4930331;28;45901;-82
2022/06/23 01:34:09;;;;;;;;;21.25;21.00;;;;;23.86;59.41;100234.78;4886173;28;46342;-79
2022/06/23 01:39:38;;;;;;;;;21.50;20.25;;;;;23.68;58.99;100230.84;5171909;23;45753;-80
2022/06/23 01:42:11;;;;;;;;;20.00;19.75;;;;;23.65;59.54;100230.41;4992259;28;48390;-80
2022/06/23 01:44:46;;;;;;;;;22.00;21.25;;;;;23.62;59.67;100233.50;5009574;28;46605;-80
2022/06/23 01:47:39;;;;;;;;;21.00;20.75;;;;;23.58;59.14;100229.59;5011535;28;45608;-78
2022/06/23 01:50:14;;;;;;;;;20.25;19.50;;;;;23.56;59.31;100224.44;5013617;28;45660;-80
2022/06/23 01:52:45;;;;;;;;;21.25;21.25;;;;;23.53;59.46;100224.84;5015272;28;46828;-81
2022/06/23 01:55:24;;;;;;;;;24.25;21.50;;;;;23.47;59.08;100222.16;4993964;28;47099;-82
2022/06/23 01:58:04;;;;;;;;;21.25;19.75;;;;;23.49;59.24;100226.25;4995677;28;46004;-81
2022/06/23 02:00:30;;;;;;;;;19.50;19.00;;;;;23.40;59.89;100212.22;5014322;28;46167;-81
2022/06/23 02:03:19;;;;;;;;;23.00;22.00;;;;;23.49;59.52;100231.63;4990212;28;47765;-83
2022/06/23 02:05:56;;;;;;;;;25.50;23.25;;;;;23.48;59.92;100230.00;5007618;28;46313;-84
2022/06/23 02:08:51;;;;;;;;;25.25;21.00;;;;;23.46;59.65;100221.34;5021117;28;46278;-85
2022/06/23 02:18:43;;;;;;;;;25.50;21.00;;;;;23.38;59.50;100211.59;4914498;28;46261;-81
2022/06/23 02:21:31;;;;;;;;;19.75;19.50;;;;;23.49;59.52;100220.09;4917630;28;45617;-81
2022/06/23 02:24:12;;;;;;;;;22.00;21.50;;;;;23.50;59.79;100216.38;4916956;28;45741;-83
2022/06/23 02:26:55;;;;;;;;;23.50;22.75;;;;;23.51;59.75;100218.88;4917384;28;46456;-84
2022/06/23 02:29:47;;;;;;;;;20.50;18.75;;;;;23.54;59.77;100218.44;4900883;28;46662;-84
2022/06/23 02:32:21;;;;;;;;;22.25;21.25;;;;;23.59;60.08;100217.88;4908878;28;45820;-84
2022/06/23 02:34:54;;;;;;;;;24.00;23.00;;;;;23.58;60.16;100213.53;4921208;28;46002;-83
2022/06/23 02:37:44;;;;;;;;;20.50;20.50;;;;;23.61;59.81;100208.59;4924555;28;46537;-85
2022/06/23 02:40:23;;;;;;;;;20.50;18.50;;;;;23.63;59.67;100206.56;4874940;29;46521;-83
2022/06/23 02:42:56;;;;;;;;;25.50;23.50;;;;;23.63;59.43;100206.56;4863132;29;45968;-84
2022/06/23 02:45:58;;;;;;;;;20.50;19.50;;;;;23.63;59.80;100214.59;4883120;29;45910;-80
2022/06/23 02:48:44;;;;;;;;;15.00;14.00;;;;;23.62;60.44;100214.78;4883776;29;45905;-81
2022/06/23 02:51:09;;;;;;;;;9.50;9.50;;;;;23.62;60.13;100220.13;4880730;29;46148;-82
2022/06/23 02:54:05;;;;;;;;;10.00;9.00;;;;;23.57;60.00;100219.91;4908689;28;46208;-82
2022/06/23 02:56:58;;;;;;;;;7.50;7.00;;;;;23.56;60.16;100215.59;4971225;28;46055;-85
2022/06/23 02:59:58;;;;;;;;;4.50;4.00;;;;;23.48;59.97;100221.13;4968895;28;46794;-83
2022/06/23 03:02:55;;;;;;;;;6.75;6.75;;;;;23.43;60.54;100221.69;4957093;28;47382;-84
2022/06/23 03:06:17;;;;;;;;;5.75;5.25;;;;;23.38;60.53;100229.50;4973841;28;45574;-84
2022/06/23 03:08:58;;;;;;;;;4.00;4.00;;;;;23.30;60.39;100233.19;4910243;28;46454;-83
2022/06/23 03:11:52;;;;;;;;;5.00;4.00;;;;;23.22;60.73;100235.19;4917677;28;46521;-83
2022/06/23 03:17:15;;;;;;;;;4.75;3.50;;;;;23.20;60.18;100242.59;5084609;23;71596;-82
2022/06/23 03:23:26;;;;;;;;;3.25;2.75;;;;;23.14;60.33;100232.72;4976341;28;45897;-82
2022/06/23 03:26:05;;;;;;;;;4.25;3.25;;;;;22.99;60.39;100240.88;4996173;28;45835;-83
2022/06/23 03:29:04;;;;;;;;;4.50;3.25;;;;;22.98;60.29;100239.22;4993589;28;46191;-82
2022/06/23 03:31:41;;;;;;;;;3.50;3.00;;;;;22.92;60.70;100242.69;4954250;28;45732;-83
2022/06/23 03:34:18;;;;;;;;;3.00;3.00;;;;;22.91;60.89;100249.03;4956875;28;46452;-82
2022/06/23 03:36:55;;;;;;;;;3.25;3.00;;;;;22.85;60.59;100250.66;4955220;28;46416;-82
2022/06/23 03:42:34;;;;;;;;;5.25;4.00;;;;;22.74;60.44;100259.22;4954607;28;45649;-82
2022/06/23 03:45:02;;;;;;;;;4.00;3.75;;;;;22.75;61.11;100265.38;4950780;28;46311;-79
2022/06/23 03:48:01;;;;;;;;;4.00;4.00;;;;;22.69;60.84;100264.28;4952094;28;46669;-81
2022/06/23 03:50:45;;;;;;;;;2.75;2.75;;;;;22.69;60.99;100274.16;4945413;28;46120;-78
2022/06/23 03:53:13;;;;;;;;;3.50;2.25;;;;;22.67;60.73;100268.19;4951611;28;45893;-78
2022/06/23 03:56:01;;;;;;;;;5.00;3.00;;;;;22.62;60.68;100274.09;4952275;28;46465;-80
2022/06/23 03:58:26;;;;;;;;;4.00;3.25;;;;;22.66;61.23;100277.22;4911697;28;46197;-79
2022/06/23 04:00:52;;;;;;;;;3.25;2.75;;;;;22.65;60.57;100281.75;4912766;28;46016;-78
2022/06/23 04:03:23;;;;;;;;;3.00;3.00;;;;;22.63;60.38;100285.63;4911199;28;45806;-78
2022/06/23 04:06:30;;;;;;;;;3.00;3.00;;;;;22.61;60.97;100288.50;4908706;28;45858;-83
2022/06/23 04:09:25;;;;;;;;;3.00;2.25;;;;;22.55;60.66;100292.78;4924433;28;45986;-83
2022/06/23 04:12:12;;;;;;;;;2.00;2.00;;;;;22.47;61.21;100290.22;4938286;28;45855;-82
2022/06/23 04:14:46;;;;;;;;;3.00;3.00;;;;;22.47;61.10;100297.41;4938742;28;45706;-80
2022/06/23 04:17:27;;;;;;;;;3.50;2.00;;;;;22.43;61.36;100296.16;4936128;28;46941;-81
2022/06/23 04:20:10;;;;;;;;;4.00;3.00;;;;;22.38;61.09;100294.06;4929768;28;46196;-84
2022/06/23 04:22:42;;;;;;;;;3.75;2.50;;;;;22.39;60.93;100298.41;4931589;28;45757;-82
2022/06/23 04:25:16;;;;;;;;;1.75;1.00;;;;;22.37;61.07;100308.44;4929143;28;45809;-83
2022/06/23 04:31:46;;;;;;;;;3.25;3.00;;;;;22.27;61.44;100310.59;4849785;29;46510;-79
2022/06/23 04:34:26;;;;;;;;;2.75;2.00;;;;;22.14;61.49;100302.47;4800067;29;45858;-82
2022/06/23 04:36:53;;;;;;;;;3.00;3.00;;;;;22.17;61.50;100315.44;4838440;29;45745;-80
2022/06/23 04:39:42;;;;;;;;;2.50;2.50;;;;;22.13;61.67;100306.19;4848316;29;45826;-82
2022/06/23 04:42:23;;;;;;;;;2.25;2.25;;;;;22.07;61.90;100305.09;4851221;29;45954;-79
2022/06/23 04:52:32;;;;;;;;;2.00;2.00;;;;;22.04;62.67;100320.66;4764103;29;45832;-80
2022/06/23 04:55:06;;;;;;;;;5.00;4.00;;;;;22.00;62.64;100325.53;4780733;29;45913;-80
2022/06/23 04:57:55;;;;;;;;;3.00;3.00;;;;;21.97;62.50;100311.78;4781871;29;45855;-78
2022/06/23 05:00:38;;;;;;;;;3.25;3.25;;;;;21.97;62.04;100314.44;4776986;29;45865;-79
2022/06/23 05:03:31;;;;;;;;;3.00;2.75;;;;;21.98;62.33;100310.72;4781587;29;45820;-80
2022/06/23 05:06:05;;;;;;;;;3.50;3.00;;;;;21.95;62.00;100303.13;4781737;29;46072;-79
2022/06/23 05:08:33;;;;;;;;;4.00;3.75;;;;;21.93;61.84;100313.94;4801320;29;45765;-79
2022/06/23 05:11:14;;;;;;;;;3.00;3.00;;;;;21.96;62.69;100324.28;4851659;29;46007;-81
2022/06/23 05:13:50;;;;;;;;;5.25;2.75;;;;;21.90;62.22;100314.34;4885454;29;45816;-80
2022/06/23 05:16:43;;;;;;;;;4.25;2.25;;;;;21.91;62.82;100332.00;4896481;28;46350;-81
2022/06/23 05:19:15;;;;;;;;;4.25;3.50;;;;;21.82;62.33;100313.59;4888408;28;45967;-79
2022/06/23 05:21:46;;;;;;;;;5.00;3.50;;;;;21.90;62.72;100324.16;4893189;28;46326;-82
2022/06/23 05:24:21;;;;;;;;;4.50;3.50;;;;;21.91;63.08;100329.31;4892468;28;45750;-83
2022/06/23 05:27:01;;;;;;;;;4.75;3.50;;;;;21.94;62.61;100333.44;4928582;28;46583;-82
2022/06/23 05:29:44;;;;;;;;;3.75;3.75;;;;;21.90;62.72;100326.84;4991326;28;45672;-81
2022/06/23 05:32:23;;;;;;;;;3.75;3.00;;;;;21.97;62.77;100335.78;4986955;28;45724;-81
2022/06/23 05:35:03;;;;;;;;;3.25;3.00;;;;;21.92;62.20;100330.94;4987767;28;45651;-78
2022/06/23 05:37:48;;;;;;;;;3.50;3.00;;;;;21.96;62.40;100334.13;4994430;28;45734;-79
2022/06/23 05:40:33;;;;;;;;;4.00;4.00;;;;;22.00;61.97;100330.06;4994195;28;46961;-78
2022/06/23 05:43:02;;;;;;;;;6.75;4.75;;;;;21.99;61.97;100315.88;4988771;28;45782;-79
2022/06/23 05:45:42;;;;;;;;;5.25;4.00;;;;;22.05;62.25;100332.97;4994339;28;46728;-81
2022/06/23 05:48:13;;;;;;;;;5.00;4.25;;;;;22.03;62.03;100319.81;4994987;28;46581;-80
2022/06/23 05:51:07;;;;;;;;;4.75;4.25;;;;;22.01;61.29;100323.72;4994321;28;45759;-78
2022/06/23 05:53:51;;;;;;;;;6.75;5.00;;;;;21.96;61.02;100321.63;4918197;28;45739;-81
2022/06/23 05:56:23;;;;;;;;;5.25;4.50;;;;;21.88;60.71;100310.19;4909317;28;46830;-79
2022/06/23 05:59:01;;;;;;;;;4.50;4.00;;;;;21.81;60.94;100309.31;4915680;28;46038;-80
2022/06/23 06:01:33;;;;;;;;;4.50;4.00;;;;;21.90;60.71;100318.84;4917126;28;45811;-81
2022/06/23 06:04:10;;;;;;;;;5.75;5.75;;;;;21.78;61.13;100303.31;4918534;28;45892;-80
2022/06/23 06:06:37;;;;;;;;;7.00;6.00;;;;;21.81;61.01;100318.09;4916032;28;45950;-80
2022/06/23 06:10:05;;;;;;;;;7.00;6.00;;;;;21.77;60.88;100308.84;4915290;28;46137;-81
2022/06/23 06:12:39;;;;;;;;;6.00;5.25;;;;;21.75;60.99;100313.56;4862097;29;45864;-80
2022/06/23 06:15:26;;;;;;;;;6.50;6.00;;;;;21.81;60.83;100319.97;4849072;29;45830;-83
2022/06/23 06:17:56;;;;;;;;;6.00;5.00;;;;;21.74;60.55;100320.72;4860403;29;46697;-79
2022/06/23 06:27:14;;;;;;;;;7.75;6.75;;;;;21.68;60.68;100323.31;4842578;29;45867;-78
2022/06/23 06:29:43;;;;;;;;;9.00;6.00;;;;;21.69;60.90;100325.81;4839352;29;47519;-77
2022/06/23 06:43:46;;;;;;;;;5.75;5.25;;;;;21.63;60.94;100309.72;4792581;29;45623;-88
2022/06/23 06:46:05;;;;;;;;;6.75;5.00;;;;;21.47;60.72;100291.28;4789876;29;46061;-81
2022/06/23 06:48:43;;;;;;;;;5.00;4.00;;;;;21.57;60.63;100315.78;4807930;29;45766;-78
2022/06/23 06:51:17;;;;;;;;;6.25;5.75;;;;;21.52;60.45;100315.53;4824548;29;45637;-82
2022/06/23 06:53:49;;;;;;;;;6.00;5.25;;;;;21.52;60.93;100312.88;4824080;29;46811;-80
2022/06/23 06:56:23;;;;;;;;;7.25;6.75;;;;;21.52;60.59;100321.69;4823877;29;46589;-82
2022/06/23 06:58:57;;;;;;;;;9.50;8.00;;;;;21.55;60.94;100310.66;4826997;29;45790;-81
2022/06/23 07:01:26;;;;;;;;;7.00;6.00;;;;;21.60;61.18;100329.56;4844214;29;45829;-78
2022/06/23 07:03:54;;;;;;;;;5.75;5.75;;;;;21.64;60.77;100330.03;4844977;29;45752;-88
2022/06/23 07:06:29;;;;;;;;;7.75;6.00;;;;;21.63;60.45;100329.22;4845379;29;46318;-80
2022/06/23 07:08:58;;;;;;;;;7.00;6.00;;;;;21.59;60.90;100305.78;4844819;29;45724;-78
2022/06/23 07:11:32;;;;;;;;;6.00;5.25;;;;;21.61;60.73;100304.56;4855790;28;45624;-82
2022/06/23 07:14:05;;;;;;;;;8.00;7.00;;;;;21.62;60.39;100311.56;4918984;28;47390;-79
2022/06/23 07:16:38;;;;;;;;;7.00;6.75;;;;;21.64;60.49;100324.72;4936634;28;46309;-81
2022/06/23 07:19:08;;;;;;;;;5.75;5.75;;;;;21.60;60.55;100324.25;4960528;28;45745;-80
2022/06/23 07:21:39;;;;;;;;;8.25;6.50;;;;;21.67;60.89;100335.00;4998475;28;45521;-80
2022/06/23 07:24:16;;;;;;;;;4.00;4.00;;;;;21.71;60.49;100345.09;4999599;28;45644;-78
2022/06/23 07:26:45;;;;;;;;;7.25;6.00;;;;;21.76;60.14;100337.34;4997490;28;47246;-82
2022/06/23 07:29:40;;;;;;;;;6.00;5.00;;;;;21.82;60.53;100341.09;5004677;28;45714;-81
2022/06/23 07:32:27;;;;;;;;;8.00;7.25;;;;;21.89;60.18;100346.53;5002067;28;45675;-79
2022/06/23 07:34:59;;;;;;;;;6.00;5.25;;;;;21.93;59.32;100343.28;4998857;28;46318;-81
2022/06/23 07:41:03;;;;;;;;;5.25;5.00;;;;;22.06;59.42;100347.97;5000011;28;45686;-80
2022/06/23 07:43:44;;;;;;;;;6.50;5.25;;;;;22.07;58.94;100341.63;4999803;28;45673;-78
2022/06/23 07:46:09;;;;;;;;;7.00;6.00;;;;;22.14;58.58;100353.19;4988575;28;47451;-83
2022/06/23 07:48:36;;;;;;;;;7.75;6.50;;;;;22.14;58.73;100339.84;4995674;28;45690;-78
2022/06/23 07:51:05;;;;;;;;;7.00;6.00;;;;;22.19;58.48;100345.41;4995413;28;45793;-78
2022/06/23 07:57:27;;;;;;;;;7.00;6.75;;;;;22.20;58.58;100344.41;4995983;28;45624;-81
2022/06/23 07:59:58;;;;;;;;;7.25;6.00;;;;;22.23;58.04;100336.03;4996011;28;45766;-76
2022/06/23 08:02:47;;;;;;;;;7.00;5.25;;;;;22.29;57.84;100331.78;4997207;28;45542;-78
2022/06/23 08:05:19;;;;;;;;;5.75;5.25;;;;;22.36;57.59;100336.13;4999686;28;45622;-76
2022/06/23 08:07:46;;;;;;;;;7.50;7.00;;;;;22.37;58.08;100335.13;4994271;28;46449;-80
2022/06/23 08:10:18;;;;;;;;;6.00;5.25;;;;;22.44;58.01;100333.34;4998424;28;46445;-78
2022/06/23 08:13:12;;;;;;;;;8.50;6.00;;;;;22.48;57.34;100339.13;4998256;28;45564;-78
2022/06/23 08:18:48;;;;;;;;;8.00;6.50;;;;;22.50;57.82;100350.44;4999360;28;46241;-76
2022/06/23 08:21:20;;;;;;;;;6.00;4.25;;;;;22.46;57.40;100330.47;4999546;28;45724;-78
2022/06/23 08:23:58;;;;;;;;;6.25;5.00;;;;;22.55;56.61;100346.19;4999135;28;45529;-77
2022/06/23 08:26:24;;;;;;;;;6.00;6.00;;;;;22.56;56.81;100337.13;4999480;28;45736;-76
2022/06/23 08:28:54;;;;;;;;;6.50;6.00;;;;;22.52;56.51;100316.34;4999411;28;46635;-79
2022/06/23 08:31:20;;;;;;;;;6.25;6.25;;;;;22.57;57.08;100328.09;4998929;28;46358;-79
2022/06/23 08:33:45;;;;;;;;;8.50;7.50;;;;;22.67;56.69;100332.31;4996697;28;45721;-76
2022/06/23 08:36:15;;;;;;;;;5.75;5.25;;;;;22.68;56.45;100328.59;4996183;28;45597;-77
2022/06/23 08:39:01;;;;;;;;;7.00;6.50;;;;;22.81;56.43;100342.91;4995233;28;45770;-77
2022/06/23 08:41:47;;;;;;;;;7.50;7.50;;;;;22.87;56.16;100350.16;4995315;28;45845;-78
2022/06/23 08:44:32;;;;;;;;;6.00;6.00;;;;;22.95;56.29;100349.16;4996341;28;45636;-79
2022/06/23 08:47:20;;;;;;;;;6.75;5.00;;;;;22.99;56.40;100342.44;4995120;28;45654;-78
2022/06/23 08:49:54;;;;;;;;;6.75;6.00;;;;;23.05;56.06;100343.50;4995550;28;45865;-78
2022/06/23 08:52:35;;;;;;;;;6.00;5.75;;;;;23.12;55.28;100339.00;4994930;28;46356;-78
2022/06/23 08:55:04;;;;;;;;;5.00;4.00;;;;;23.16;55.11;100343.75;4994743;28;45797;-78
2022/06/23 08:57:44;;;;;;;;;5.75;5.25;;;;;23.21;55.07;100348.53;4995137;28;45808;-79
2022/06/23 09:00:28;;;;;;;;;6.00;6.00;;;;;23.15;54.88;100331.41;4994154;28;46681;-78
2022/06/23 09:03:26;;;;;;;;;6.00;5.00;;;;;23.26;54.61;100343.41;4994939;28;46058;-77
2022/06/23 09:06:19;;;;;;;;;4.00;3.00;;;;;23.32;54.83;100342.63;4995331;28;45766;-76
2022/06/23 09:12:17;;;;;;;;;6.00;6.00;;;;;23.42;53.94;100332.38;4994267;28;45899;-79
2022/06/23 09:15:15;;;;;;;;;7.50;5.00;;;;;23.43;54.22;100342.84;4993934;28;46673;-77
2022/06/23 09:17:58;;;;;;;;;5.00;5.00;;;;;23.48;53.71;100346.84;4994235;28;45609;-79
2022/06/23 09:20:56;;;;;;;;;6.00;5.50;;;;;23.50;53.39;100344.78;4994451;28;45510;-78
2022/06/23 09:26:55;;;;;;;;;5.25;5.25;;;;;23.58;53.83;100337.41;4932808;28;45633;-78
2022/06/23 09:29:41;;;;;;;;;7.75;7.00;;;;;23.60;53.60;100346.03;4933538;28;45793;-79
2022/06/23 09:32:16;;;;;;;;;6.25;6.00;;;;;23.66;53.94;100331.03;4933247;28;45761;-78
2022/06/23 09:34:50;;;;;;;;;6.25;5.00;;;;;23.71;53.65;100334.78;4933293;28;46984;-79
2022/06/23 09:37:18;;;;;;;;;6.00;5.75;;;;;23.75;53.12;100330.66;4933422;28;46892;-80
2022/06/23 09:43:05;;;;;;;;;6.25;6.00;;;;;23.78;53.45;100319.56;4933211;28;45644;-78
2022/06/23 09:45:46;;;;;;;;;6.75;6.25;;;;;23.84;53.03;100321.44;4933829;28;45787;-79
2022/06/23 09:48:24;;;;;;;;;6.00;6.00;;;;;23.89;53.38;100318.16;4926053;28;46353;-78
2022/06/23 09:51:04;;;;;;;;;7.00;7.00;;;;;23.97;53.37;100325.19;4917376;28;45675;-78
2022/06/23 09:53:51;;;;;;;;;6.25;5.75;;;;;24.04;52.99;100326.81;4933818;28;45727;-80
2022/06/23 09:56:38;;;;;;;;;6.50;5.75;;;;;24.11;53.08;100321.50;4932871;28;45604;-79
2022/06/23 09:59:09;;;;;;;;;7.00;6.00;;;;;24.18;52.67;100328.53;4957428;28;45834;-77
2022/06/23 10:01:46;;;;;;;;;5.25;5.00;;;;;24.23;51.86;100320.72;4993259;28;45624;-78
2022/06/23 10:04:33;;;;;;;;;5.75;5.25;;;;;24.27;52.06;100326.47;4993525;28;45696;-77
2022/06/23 10:07:17;;;;;;;;;6.25;6.25;;;;;24.39;52.25;100324.03;4993225;28;45492;-77
2022/06/23 10:09:52;;;;;;;;;7.00;6.25;;;;;24.45;52.09;100320.53;4993425;28;45791;-78
2022/06/23 10:12:40;;;;;;;;;6.50;6.25;;;;;24.51;51.82;100320.50;4995535;28;45664;-79
2022/06/23 10:15:12;;;;;;;;;6.00;6.00;;;;;24.58;51.75;100315.16;5003121;28;45676;-77
2022/06/23 10:18:00;;;;;;;;;6.75;6.25;;;;;24.64;51.54;100330.41;4996571;28;46492;-78
2022/06/23 10:20:44;;;;;;;;;7.50;7.50;;;;;24.70;51.46;100331.44;4996866;28;45914;-76
2022/06/23 10:26:46;;;;;;;;;8.25;7.75;;;;;24.81;50.62;100326.25;4990923;28;45656;-77
2022/06/23 10:29:49;;;;;;;;;6.75;5.50;;;;;24.86;51.06;100322.94;4996721;28;45605;-77
2022/06/23 10:32:39;;;;;;;;;1.50;1.00;;;;;24.89;50.37;100318.03;4996643;28;45588;-79
2022/06/23 10:35:28;;;;;;;;;6.75;6.00;;;;;24.93;50.46;100313.91;4996786;28;45656;-79
2022/06/23 10:38:00;;;;;;;;;8.00;7.25;;;;;24.97;50.52;100314.31;4996988;28;45450;-80
2022/06/23 10:44:15;;;;;;;;;6.75;6.75;;;;;25.14;50.47;100306.63;4996634;28;46100;-80
2022/06/23 10:47:19;;;;;;;;;9.00;8.25;;;;;25.19;50.01;100312.19;4996574;28;45699;-80
2022/06/23 10:50:12;;;;;;;;;6.00;6.00;;;;;25.28;50.02;100319.78;4972973;28;46078;-79
2022/06/23 10:52:58;;;;;;;;;5.50;5.00;;;;;25.33;49.64;100313.78;4996701;28;46654;-81
2022/06/23 10:55:29;;;;;;;;;6.75;6.75;;;;;25.35;49.48;100301.81;4996837;28;46433;-81
2022/06/23 10:58:18;;;;;;;;;7.50;7.50;;;;;25.36;48.83;100297.28;4997039;28;45738;-80
2022/06/23 11:00:53;;;;;;;;;6.25;6.25;;;;;25.40;48.66;100298.50;4953083;28;45606;-84
2022/06/23 11:03:49;;;;;;;;;5.50;4.50;;;;;25.43;48.86;100301.56;4955840;28;45609;-82
2022/06/23 11:06:28;;;;;;;;;7.00;6.00;;;;;25.47;48.57;100305.47;4955175;28;46124;-83
2022/06/23 11:12:29;;;;;;;;;6.75;6.00;;;;;25.57;47.97;100293.50;4955105;28;45803;-80
2022/06/23 11:15:19;;;;;;;;;6.75;6.75;;;;;25.60;47.86;100296.56;4954913;28;48565;-80
2022/06/23 11:18:03;;;;;;;;;6.25;6.25;;;;;25.61;47.04;100303.56;4954644;28;46190;-81
2022/06/23 11:20:37;;;;;;;;;6.25;6.00;;;;;25.61;47.13;100298.22;4954855;28;45537;-81
2022/06/23 11:30:07;;;;;;;;;6.00;5.25;;;;;25.72;47.02;100284.09;4934247;28;45696;-80
2022/06/23 11:32:51;;;;;;;;;6.00;6.00;;;;;25.78;47.48;100285.09;4934391;28;45850;-81
2022/06/23 11:36:04;;;;;;;;;7.75;6.75;;;;;25.85;46.53;100286.72;4934361;28;45809;-81
2022/06/23 11:38:51;;;;;;;;;6.00;6.00;;;;;25.94;46.35;100281.09;4881139;29;45781;-81
2022/06/23 11:41:34;;;;;;;;;5.50;5.50;;;;;26.01;46.04;100279.19;4877074;29;45761;-83
2022/06/23 11:44:12;;;;;;;;;6.00;4.75;;;;;26.03;45.69;100258.28;4877236;29;45894;-81
2022/06/23 11:47:11;;;;;;;;;6.75;6.25;;;;;26.03;45.87;100256.44;4877120;29;45876;-80
2022/06/23 11:49:57;;;;;;;;;6.00;5.75;;;;;26.17;46.05;100258.00;4877105;29;46501;-80
2022/06/23 11:52:36;;;;;;;;;5.00;4.00;;;;;26.22;45.88;100263.56;4876744;29;45936;-81
2022/06/23 11:58:46;;;;;;;;;6.25;6.00;;;;;26.34;44.35;100257.47;4877223;29;45854;-81
2022/06/23 12:01:20;;;;;;;;;6.00;5.00;;;;;26.35;44.51;100256.41;4888437;28;46019;-81
2022/06/23 12:03:46;;;;;;;;;8.00;7.25;;;;;26.36;44.70;100250.81;4934093;28;45891;-81
2022/06/23 12:06:27;;;;;;;;;4.25;4.25;;;;;26.39;44.78;100249.56;4917935;28;45980;-82
2022/06/23 12:08:59;;;;;;;;;5.25;5.25;;;;;26.40;44.33;100235.88;4936165;28;45667;-82
2022/06/23 12:14:47;;;;;;;;;5.00;5.00;;;;;26.48;43.97;100241.00;4995216;28;45680;-81
2022/06/23 12:17:28;;;;;;;;;6.00;5.00;;;;;26.48;43.13;100227.56;4995285;28;45858;-82
2022/06/23 12:20:16;;;;;;;;;5.00;5.00;;;;;26.53;42.83;100227.72;4992510;28;45857;-81
2022/06/23 12:23:12;;;;;;;;;5.75;5.00;;;;;26.60;42.11;100236.53;4995736;28;46725;-82
2022/06/23 12:25:53;;;;;;;;;4.25;4.25;;;;;26.64;42.09;100228.84;4971767;28;45937;-81
2022/06/23 12:28:38;;;;;;;;;6.50;6.00;;;;;26.65;42.13;100225.13;4986982;28;45736;-82
2022/06/23 12:31:24;;;;;;;;;4.50;4.50;;;;;26.71;42.79;100225.06;4995060;28;45581;-82
2022/06/23 12:34:22;;;;;;;;;6.00;6.00;;;;;26.78;42.78;100224.13;4994881;28;45767;-82
2022/06/23 12:37:19;;;;;;;;;5.00;5.00;;;;;26.85;42.61;100219.50;4933695;28;46681;-82
2022/06/23 12:40:13;;;;;;;;;6.00;6.00;;;;;26.91;42.60;100218.66;4898662;28;45983;-83
2022/06/23 12:42:42;;;;;;;;;6.25;6.00;;;;;26.93;41.67;100216.56;4915328;28;45692;-82
2022/06/23 12:45:22;;;;;;;;;6.00;6.00;;;;;26.97;42.58;100212.38;4914660;28;45653;-82
2022/06/23 12:48:21;;;;;;;;;6.00;5.50;;;;;27.01;41.84;100208.19;4898669;28;46528;-81
2022/06/23 12:50:58;;;;;;;;;6.50;6.00;;;;;27.11;41.84;100211.16;4914518;28;45727;-81
2022/06/23 12:54:01;;;;;;;;;7.75;7.00;;;;;27.18;41.67;100216.44;4914591;28;45843;-81
2022/06/23 12:56:36;;;;;;;;;6.50;6.25;;;;;27.25;41.30;100212.63;4913940;28;45989;-81
2022/06/23 12:59:40;;;;;;;;;5.50;5.50;;;;;27.34;41.94;100218.50;4914488;28;45883;-82
2022/06/23 13:02:13;;;;;;;;;5.25;5.25;;;;;27.41;41.34;100209.31;4894762;29;45655;-81
2022/06/23 13:05:05;;;;;;;;;5.25;5.00;;;;;27.47;42.04;100208.41;4895293;29;45821;-80
2022/06/23 13:07:41;;;;;;;;;6.75;6.00;;;;;27.52;41.29;100196.97;4895035;29;45900;-82
2022/06/23 13:13:53;;;;;;;;;5.00;5.00;;;;;27.61;41.19;100197.44;4912292;28;45761;-81
2022/06/23 13:16:32;;;;;;;;;5.50;5.50;;;;;27.62;40.90;100185.63;4926524;28;45826;-81
2022/06/23 13:19:12;;;;;;;;;5.25;4.50;;;;;27.70;41.40;100182.59;4951821;28;45903;-81
2022/06/23 13:21:39;;;;;;;;;6.75;6.75;;;;;27.72;40.61;100167.03;4952202;28;45914;-81
2022/06/23 13:24:10;;;;;;;;;6.00;5.00;;;;;27.81;40.69;100182.63;4952281;28;45669;-80
2022/06/23 13:30:12;;;;;;;;;5.00;5.00;;;;;27.92;40.29;100181.00;4951917;28;45690;-80
2022/06/23 13:32:45;;;;;;;;;4.00;4.00;;;;;27.96;38.91;100179.50;4951897;28;47756;-80
2022/06/23 13:35:16;;;;;;;;;5.25;4.75;;;;;27.98;39.60;100185.44;4952061;28;45740;-81
2022/06/23 13:37:52;;;;;;;;;6.50;5.75;;;;;27.96;39.31;100182.19;4952296;28;45735;-81
2022/06/23 13:40:33;;;;;;;;;4.25;4.25;;;;;28.02;39.60;100185.81;4993203;28;46610;-80
2022/06/23 13:43:07;;;;;;;;;4.00;4.00;;;;;28.06;38.91;100181.59;4993287;28;46541;-81
2022/06/23 13:45:42;;;;;;;;;4.25;4.25;;;;;28.12;38.82;100184.22;4986969;28;46001;-79
2022/06/23 13:48:19;;;;;;;;;5.75;5.75;;;;;28.15;38.53;100183.75;4997010;28;45690;-81
2022/06/23 13:50:59;;;;;;;;;6.00;5.00;;;;;28.19;38.79;100181.38;4996802;28;46449;-81
2022/06/23 13:53:31;;;;;;;;;5.00;5.00;;;;;28.18;38.82;100161.72;4996744;28;45979;-83
2022/06/23 13:56:08;;;;;;;;;5.75;5.50;;;;;28.21;38.92;100160.44;4996437;28;45686;-82
2022/06/23 13:58:59;;;;;;;;;7.00;6.00;;;;;28.21;38.56;100158.56;4990862;28;45870;-81
2022/06/23 14:01:32;;;;;;;;;0.00;0.00;;;;;28.19;38.43;100155.28;4996514;28;45678;-81
2022/06/23 14:04:16;;;;;;;;;5.00;5.00;;;;;28.30;38.28;100154.44;4996369;28;45880;-81
2022/06/23 14:06:48;;;;;;;;;5.50;5.50;;;;;28.35;38.23;100156.44;4988253;28;45668;-79
2022/06/23 14:09:32;;;;;;;;;7.25;5.50;;;;;28.28;38.05;100145.78;4996796;28;45621;-80